createdAt,value
2022-10-30T00:01:17.978Z,100470.94
2022-10-30T00:03:44.617Z,100467.63
2022-10-30T00:06:11.214Z,100464.19
2022-10-30T00:08:37.825Z,100459.88
2022-10-30T00:11:14.239Z,100470.59
2022-10-30T00:13:43.767Z,100474.47
2022-10-30T00:16:10.698Z,100473.31
2022-10-30T00:18:38.455Z,100473.41
2022-10-30T00:21:07.105Z,100482.00
2022-10-30T00:23:33.630Z,100465.88
2022-10-30T00:26:04.252Z,100468.84
2022-10-30T00:28:30.870Z,100466.13
2022-10-30T00:31:04.788Z,100468.59
2022-10-30T00:33:31.531Z,100464.97
2022-10-30T00:35:58.319Z,100461.44
2022-10-30T00:38:24.913Z,100465.88
2022-10-30T00:40:51.870Z,100468.16
2022-10-30T00:43:27.479Z,100462.13
2022-10-30T00:45:54.452Z,100469.66
2022-10-30T00:48:24.295Z,100465.72
2022-10-30T00:50:50.990Z,100459.34
2022-10-30T00:53:18.735Z,100465.56
2022-10-30T00:55:55.170Z,100459.75
2022-10-30T00:58:26.514Z,100456.44
2022-10-30T01:00:55.227Z,100465.16
2022-10-30T01:03:22.262Z,100461.69
2022-10-30T01:05:52.766Z,100458.13
2022-10-30T01:08:19.596Z,100455.75
2022-10-30T01:10:47.685Z,100458.00
2022-10-30T01:13:15.037Z,100452.94
2022-10-30T01:16:09.994Z,100456.34
2022-10-30T01:18:58.560Z,100451.16
2022-10-30T01:21:34.759Z,100459.97
2022-10-30T01:24:23.201Z,100456.94
2022-10-30T01:26:52.652Z,100460.53
2022-10-30T01:29:54.628Z,100458.50
2022-10-30T01:33:17.089Z,100450.78
2022-10-30T01:35:54.124Z,100453.16
2022-10-30T01:38:39.423Z,100455.63
2022-10-30T01:41:06.004Z,100459.25
2022-10-30T01:43:33.774Z,100467.75
2022-10-30T01:46:16.902Z,100476.84
2022-10-30T01:48:53.235Z,100481.41
2022-10-30T01:51:32.730Z,100480.25
2022-10-30T01:54:03.626Z,100477.06
2022-10-30T01:56:48.818Z,100489.28
2022-10-30T01:59:23.588Z,100486.00
2022-10-30T02:01:50.442Z,100494.34
2022-10-30T02:04:17.465Z,100493.72
2022-10-30T02:06:45.209Z,100498.06
2022-10-30T02:09:15.467Z,100506.56
2022-10-30T02:11:47.847Z,100507.94
2022-10-30T02:14:17.890Z,100521.16
2022-10-30T02:16:46.689Z,100520.88
2022-10-30T02:19:13.315Z,100531.06
2022-10-30T02:21:39.937Z,100540.03
2022-10-30T02:24:07.336Z,100538.75
2022-10-30T02:26:34.249Z,100544.59
2022-10-30T02:29:01.827Z,100548.50
2022-10-30T02:31:28.718Z,100553.41
2022-10-30T02:33:55.290Z,100557.00
2022-10-30T02:36:21.962Z,100561.69
2022-10-30T02:38:48.586Z,100560.91
2022-10-30T02:41:15.236Z,100569.78
2022-10-30T02:43:42.565Z,100571.97
2022-10-30T02:46:09.257Z,100574.53
2022-10-30T02:48:35.967Z,100576.09
2022-10-30T02:51:03.854Z,100573.06
2022-10-30T02:53:31.028Z,100581.66
2022-10-30T02:56:03.920Z,100583.53
2022-10-30T02:58:30.541Z,100588.91
2022-10-30T03:00:57.142Z,100609.53
2022-10-30T03:03:24.268Z,100606.09
2022-10-30T03:05:50.999Z,100616.03
2022-10-30T03:08:17.593Z,100617.53
2022-10-30T03:10:44.188Z,100620.69
2022-10-30T03:13:10.873Z,100622.88
2022-10-30T03:15:37.428Z,100622.47
2022-10-30T03:18:07.903Z,100622.13
2022-10-30T03:20:40.968Z,100627.97
2022-10-30T03:23:08.054Z,100628.88
2022-10-30T03:25:35.832Z,100629.53
2022-10-30T03:28:02.492Z,100637.41
2022-10-30T03:30:29.191Z,100630.97
2022-10-30T03:33:01.352Z,100634.47
2022-10-30T03:35:28.098Z,100637.47
2022-10-30T03:37:54.743Z,100638.06
2022-10-30T03:40:21.358Z,100635.59
2022-10-30T03:42:47.909Z,100627.50
2022-10-30T03:45:14.735Z,100622.34
2022-10-30T03:47:41.406Z,100624.22
2022-10-30T03:50:09.180Z,100636.50
2022-10-30T03:52:35.802Z,100636.50
2022-10-30T03:55:02.396Z,100647.50
2022-10-30T03:57:29.043Z,100640.28
2022-10-30T04:00:21.992Z,100643.19
2022-10-30T04:02:59.485Z,100637.59
2022-10-30T04:05:29.153Z,100639.25
2022-10-30T04:08:02.166Z,100644.25
2022-10-30T04:10:31.933Z,100640.75
2022-10-30T04:13:06.769Z,100647.97
2022-10-30T04:15:35.197Z,100642.00
2022-10-30T04:18:02.576Z,100640.78
2022-10-30T04:20:30.409Z,100645.53
2022-10-30T04:22:58.399Z,100652.41
2022-10-30T04:25:25.873Z,100656.00
2022-10-30T04:27:53.162Z,100646.63
2022-10-30T04:30:25.035Z,100656.34
2022-10-30T04:32:53.807Z,100651.28
2022-10-30T04:35:22.932Z,100650.69
2022-10-30T04:37:58.342Z,100642.44
2022-10-30T04:40:27.781Z,100655.31
2022-10-30T04:42:59.468Z,100666.09
2022-10-30T04:45:26.898Z,100664.84
2022-10-30T04:48:04.149Z,100658.41
2022-10-30T04:50:32.423Z,100658.38
2022-10-30T04:53:06.401Z,100640.59
2022-10-30T04:55:33.073Z,100634.63
2022-10-30T04:58:02.887Z,100620.16
2022-10-30T05:00:32.649Z,100620.56
2022-10-30T05:03:12.236Z,100616.91
2022-10-30T05:05:39.040Z,100626.06
2022-10-30T05:08:05.642Z,100628.16
2022-10-30T05:10:32.328Z,100642.00
2022-10-30T05:13:00.084Z,100650.81
2022-10-30T05:15:26.772Z,100654.22
2022-10-30T05:17:53.974Z,100661.31
2022-10-30T05:20:21.184Z,100661.16
2022-10-30T05:22:57.466Z,100661.53
2022-10-30T05:25:24.697Z,100662.69
2022-10-30T05:27:51.707Z,100656.97
2022-10-30T05:30:18.898Z,100651.19
2022-10-30T05:32:45.813Z,100655.84
2022-10-30T05:35:12.406Z,100661.09
2022-10-30T05:37:39.340Z,100660.91
2022-10-30T05:40:06.549Z,100664.03
2022-10-30T05:42:33.502Z,100681.72
2022-10-30T05:45:03.384Z,100688.38
2022-10-30T05:47:34.253Z,100697.34
2022-10-30T05:50:01.533Z,100703.16
2022-10-30T05:52:30.352Z,100717.25
2022-10-30T05:54:58.792Z,100727.88
2022-10-30T05:57:40.762Z,100732.00
2022-10-30T06:00:08.007Z,100751.28
2022-10-30T06:02:42.000Z,100756.00
2022-10-30T06:05:08.887Z,100773.19
2022-10-30T06:07:35.401Z,100794.28
2022-10-30T06:10:02.032Z,100799.47
2022-10-30T06:12:40.317Z,100810.03
2022-10-30T06:15:14.404Z,100818.91
2022-10-30T06:17:40.964Z,100832.56
2022-10-30T06:20:16.286Z,100843.34
2022-10-30T06:23:15.264Z,100867.31
2022-10-30T06:25:47.940Z,100875.59
2022-10-30T06:28:37.725Z,100892.75
2022-10-30T06:31:05.044Z,100907.00
2022-10-30T06:33:32.282Z,100928.56
2022-10-30T06:35:59.923Z,100947.00
2022-10-30T06:38:26.496Z,100963.31
2022-10-30T06:40:54.506Z,100973.50
2022-10-30T06:43:50.503Z,100987.56
2022-10-30T06:46:20.908Z,100996.06
2022-10-30T06:48:49.292Z,101013.41
2022-10-30T06:51:17.073Z,101037.00
2022-10-30T06:53:45.008Z,101048.44
2022-10-30T06:56:30.325Z,101052.19
2022-10-30T06:59:05.922Z,101052.63
2022-10-30T07:01:42.196Z,101054.50
2022-10-30T07:04:17.052Z,101043.75
2022-10-30T07:06:44.397Z,101025.31
2022-10-30T07:09:11.099Z,101008.13
2022-10-30T07:11:37.937Z,100994.66
2022-10-30T07:14:19.282Z,100992.19
2022-10-30T07:17:04.817Z,100974.16
2022-10-30T07:19:32.256Z,100962.75
2022-10-30T07:21:59.038Z,100953.19
2022-10-30T07:24:25.587Z,100952.75
2022-10-30T07:27:17.958Z,100925.81
2022-10-30T07:29:50.426Z,100915.44
2022-10-30T07:32:20.655Z,100888.06
2022-10-30T07:35:13.051Z,100868.72
2022-10-30T07:37:53.523Z,100844.50
2022-10-30T07:40:21.059Z,100820.41
2022-10-30T07:42:58.233Z,100800.28
2022-10-30T07:45:54.291Z,100781.66
2022-10-30T07:48:56.850Z,100773.31
2022-10-30T07:51:28.667Z,100754.66
2022-10-30T07:53:55.289Z,100745.38
2022-10-30T07:56:23.816Z,100737.56
2022-10-30T07:58:56.343Z,100732.41
2022-10-30T08:01:41.758Z,100737.94
2022-10-30T08:04:21.863Z,100725.22
2022-10-30T08:06:48.542Z,100719.19
2022-10-30T08:09:15.112Z,100713.38
2022-10-30T08:11:41.761Z,100710.38
2022-10-30T08:14:08.321Z,100717.72
2022-10-30T08:16:34.886Z,100708.22
2022-10-30T08:19:02.539Z,100712.56
2022-10-30T08:21:29.431Z,100716.22
2022-10-30T08:24:03.991Z,100722.66
2022-10-30T08:26:33.118Z,100721.16
2022-10-30T08:28:59.866Z,100732.09
2022-10-30T08:31:28.449Z,100727.97
2022-10-30T08:34:00.923Z,100730.34
2022-10-30T08:36:42.741Z,100734.69
2022-10-30T08:39:12.050Z,100739.53
2022-10-30T08:41:46.279Z,100754.50
2022-10-30T08:44:12.876Z,100758.94
2022-10-30T08:46:59.739Z,100770.16
2022-10-30T08:49:26.390Z,100782.44
2022-10-30T08:51:56.243Z,100799.94
2022-10-30T08:54:22.937Z,100816.72
2022-10-30T08:56:50.206Z,100841.38
2022-10-30T08:59:20.245Z,100863.72
2022-10-30T09:01:51.141Z,100875.56
2022-10-30T09:04:20.868Z,100890.06
2022-10-30T09:07:02.604Z,100895.22
2022-10-30T09:10:08.112Z,100898.34
2022-10-30T09:12:36.557Z,100898.69
2022-10-30T09:15:03.345Z,100899.84
2022-10-30T09:17:36.185Z,100885.53
2022-10-30T09:20:03.179Z,100871.59
2022-10-30T09:22:35.098Z,100857.44
2022-10-30T09:25:02.902Z,100828.91
2022-10-30T09:27:48.390Z,100813.44
2022-10-30T09:30:16.584Z,100790.13
2022-10-30T09:32:45.613Z,100774.53
2022-10-30T09:35:16.507Z,100768.44
2022-10-30T09:37:44.254Z,100748.84
2022-10-30T09:40:39.077Z,100742.44
2022-10-30T09:43:25.499Z,100736.03
2022-10-30T09:46:03.100Z,100722.28
2022-10-30T09:48:48.936Z,100707.94
2022-10-30T09:52:04.879Z,100697.88
2022-10-30T09:54:43.280Z,100679.91
2022-10-30T09:57:12.635Z,100678.50
2022-10-30T09:59:58.115Z,100669.69
2022-10-30T10:02:30.921Z,100663.34
2022-10-30T10:05:16.331Z,100659.19
2022-10-30T10:08:09.229Z,100662.38
2022-10-30T10:11:16.966Z,100655.13
2022-10-30T10:14:08.614Z,100641.16
2022-10-30T10:16:38.981Z,100646.19
2022-10-30T10:19:15.135Z,100642.09
2022-10-30T10:21:47.805Z,100639.91
2022-10-30T10:24:35.803Z,100642.38
2022-10-30T10:27:14.371Z,100633.66
2022-10-30T10:30:05.320Z,100625.50
2022-10-30T10:32:39.310Z,100627.41
2022-10-30T10:35:17.271Z,100623.41
2022-10-30T10:38:13.196Z,100620.66
2022-10-30T10:40:58.168Z,100624.53
2022-10-30T10:43:35.485Z,100620.09
2022-10-30T10:46:17.316Z,100622.00
2022-10-30T10:48:58.815Z,100626.72
2022-10-30T10:51:30.417Z,100620.25
2022-10-30T10:54:02.265Z,100614.53
2022-10-30T10:56:34.174Z,100606.03
2022-10-30T10:59:04.600Z,100610.38
2022-10-30T11:01:40.093Z,100609.56
2022-10-30T11:04:32.223Z,100618.53
2022-10-30T11:06:59.392Z,100605.47
2022-10-30T11:09:31.146Z,100605.81
2022-10-30T11:11:57.865Z,100607.69
2022-10-30T11:14:28.669Z,100598.81
2022-10-30T11:17:18.600Z,100596.25
2022-10-30T11:19:50.891Z,100582.34
2022-10-30T11:22:32.775Z,100581.94
2022-10-30T11:25:19.491Z,100586.94
2022-10-30T11:27:48.582Z,100583.81
2022-10-30T11:30:20.940Z,100588.09
2022-10-30T11:32:47.715Z,100583.81
2022-10-30T11:35:16.691Z,100570.09
2022-10-30T11:37:44.664Z,100567.84
2022-10-30T11:40:11.221Z,100563.88
2022-10-30T11:42:39.732Z,100564.38
2022-10-30T11:45:17.793Z,100561.47
2022-10-30T11:47:44.798Z,100564.31
2022-10-30T11:50:22.551Z,100545.31
2022-10-30T11:52:53.095Z,100544.00
2022-10-30T11:55:24.501Z,100544.66
2022-10-30T11:57:53.037Z,100547.63
2022-10-30T12:00:22.162Z,100545.16
2022-10-30T12:02:53.426Z,100548.03
2022-10-30T12:05:25.980Z,100551.50
2022-10-30T12:07:53.634Z,100544.84
2022-10-30T12:10:28.590Z,100551.00
2022-10-30T12:12:55.654Z,100560.63
2022-10-30T12:15:26.952Z,100567.59
2022-10-30T12:17:54.335Z,100568.16
2022-10-30T12:20:21.170Z,100567.66
2022-10-30T12:22:47.843Z,100569.53
2022-10-30T12:25:26.811Z,100566.16
2022-10-30T12:27:59.961Z,100565.50
2022-10-30T12:30:28.924Z,100567.50
2022-10-30T12:33:12.604Z,100561.16
2022-10-30T12:35:53.145Z,100566.19
2022-10-30T12:38:43.029Z,100569.16
2022-10-30T12:41:18.352Z,100572.09
2022-10-30T12:43:52.546Z,100567.16
2022-10-30T12:46:37.875Z,100569.47
2022-10-30T12:49:29.639Z,100562.22
2022-10-30T12:52:11.859Z,100568.09
2022-10-30T12:54:54.904Z,100576.78
2022-10-30T12:57:26.567Z,100580.16
2022-10-30T13:00:14.716Z,100576.56
2022-10-30T13:03:19.964Z,100581.06
2022-10-30T13:06:00.438Z,100580.22
2022-10-30T13:08:40.135Z,100578.69
2022-10-30T13:11:17.256Z,100575.16
2022-10-30T13:13:48.381Z,100580.31
2022-10-30T13:16:26.605Z,100568.31
2022-10-30T13:18:59.502Z,100573.63
2022-10-30T13:21:32.249Z,100569.88
2022-10-30T13:24:03.152Z,100570.53
2022-10-30T13:26:57.284Z,100570.13
2022-10-30T13:29:54.775Z,100577.28
2022-10-30T13:32:40.073Z,100574.50
2022-10-30T13:35:48.429Z,100570.22
2022-10-30T13:38:33.563Z,100579.28
2022-10-30T13:41:25.024Z,100576.22
2022-10-30T13:44:06.698Z,100572.69
2022-10-30T13:47:17.906Z,100570.53
2022-10-30T13:49:44.424Z,100578.09
2022-10-30T13:52:21.465Z,100580.22
2022-10-30T13:55:25.759Z,100583.09
2022-10-30T13:58:08.122Z,100600.16
2022-10-30T14:00:37.641Z,100604.38
2022-10-30T14:03:12.840Z,100611.44
2022-10-30T14:05:53.987Z,100600.59
2022-10-30T14:08:20.558Z,100591.88
2022-10-30T14:10:54.698Z,100584.69
2022-10-30T14:13:27.033Z,100579.19
2022-10-30T14:15:56.419Z,100568.75
2022-10-30T14:18:43.939Z,100575.38
2022-10-30T14:21:52.317Z,100572.25
2022-10-30T14:24:22.127Z,100584.91
2022-10-30T14:26:52.892Z,100594.81
2022-10-30T14:29:35.569Z,100605.56
2022-10-30T14:32:23.176Z,100626.41
2022-10-30T14:34:53.103Z,100636.44
2022-10-30T14:37:22.671Z,100646.88
2022-10-30T14:39:50.674Z,100651.41
2022-10-30T14:42:45.343Z,100666.81
2022-10-30T14:45:18.252Z,100678.97
2022-10-30T14:47:52.344Z,100680.03
2022-10-30T14:50:23.007Z,100682.63
2022-10-30T14:52:49.718Z,100691.13
2022-10-30T14:55:26.657Z,100695.00
2022-10-30T14:58:02.496Z,100713.59
2022-10-30T15:00:35.478Z,100710.91
2022-10-30T15:03:21.098Z,100715.63
2022-10-30T15:05:58.825Z,100721.84
2022-10-30T15:08:35.774Z,100727.72
2022-10-30T15:11:14.069Z,100721.88
2022-10-30T15:13:49.644Z,100734.13
2022-10-30T15:16:19.029Z,100734.47
2022-10-30T15:19:12.593Z,100743.97
2022-10-30T15:21:45.937Z,100751.75
2022-10-30T15:24:27.017Z,100760.47
2022-10-30T15:26:59.156Z,100764.91
2022-10-30T15:29:35.028Z,100771.63
2022-10-30T15:32:04.326Z,100779.38
2022-10-30T15:34:33.044Z,100788.53
2022-10-30T15:36:59.631Z,100784.06
2022-10-30T15:39:26.256Z,100791.13
2022-10-30T15:42:01.576Z,100794.53
2022-10-30T15:44:34.078Z,100809.88
2022-10-30T15:47:02.241Z,100807.72
2022-10-30T15:49:39.544Z,100803.25
2022-10-30T15:52:14.887Z,100807.59
2022-10-30T15:54:45.864Z,100829.75
2022-10-30T15:58:02.416Z,100831.13
2022-10-30T16:00:41.717Z,100841.56
2022-10-30T16:03:11.363Z,100859.75
2022-10-30T16:05:38.072Z,100865.34
2022-10-30T16:08:14.874Z,100871.16
2022-10-30T16:10:43.158Z,100870.75
2022-10-30T16:13:45.316Z,100872.13
2022-10-30T16:18:42.400Z,100889.09
2022-10-30T16:21:10.796Z,100902.97
2022-10-30T16:23:39.152Z,100897.88
2022-10-30T16:26:06.156Z,100911.06
2022-10-30T16:28:37.518Z,100922.72
2022-10-30T16:31:08.592Z,100917.22
2022-10-30T16:33:36.663Z,100932.09
2022-10-30T16:36:04.541Z,100942.47
2022-10-30T16:38:36.926Z,100940.34
2022-10-30T16:41:08.069Z,100946.88
2022-10-30T16:43:35.435Z,100960.75
2022-10-30T16:46:11.001Z,100975.13
2022-10-30T16:48:37.599Z,100979.84
2022-10-30T16:51:04.517Z,100975.56
2022-10-30T16:53:31.443Z,100977.44
2022-10-30T16:56:00.100Z,100975.88
2022-10-30T16:58:30.775Z,100985.63
2022-10-30T17:01:03.369Z,100986.00
2022-10-30T17:03:36.050Z,100996.50
2022-10-30T17:06:06.293Z,100997.13
2022-10-30T17:08:53.495Z,101005.47
2022-10-30T17:11:34.125Z,101004.53
2022-10-30T17:14:02.511Z,101014.59
2022-10-30T17:16:33.422Z,101012.94
2022-10-30T17:19:02.364Z,101028.13
2022-10-30T17:21:38.389Z,101041.97
2022-10-30T17:24:05.356Z,101046.94
2022-10-30T17:26:36.894Z,101056.50
2022-10-30T17:29:03.509Z,101061.91
2022-10-30T17:31:36.221Z,101064.06
2022-10-30T17:34:02.776Z,101069.31
2022-10-30T17:36:29.367Z,101065.25
2022-10-30T17:38:58.076Z,101071.31
2022-10-30T17:41:24.806Z,101066.53
2022-10-30T17:43:53.533Z,101085.66
2022-10-30T17:46:20.855Z,101086.38
2022-10-30T17:48:47.960Z,101084.66
2022-10-30T17:51:15.163Z,101076.06
2022-10-30T17:53:42.020Z,101073.03
2022-10-30T17:56:22.152Z,101062.97
2022-10-30T17:58:49.871Z,101054.59
2022-10-30T18:01:19.542Z,101065.19
2022-10-30T18:03:46.262Z,101078.38
2022-10-30T18:06:17.750Z,101075.75
2022-10-30T18:08:47.891Z,101092.91
2022-10-30T18:11:21.804Z,101095.69
2022-10-30T18:13:50.028Z,101118.63
2022-10-30T18:16:17.770Z,101125.56
2022-10-30T18:18:45.510Z,101143.00
2022-10-30T18:21:16.983Z,101156.31
2022-10-30T18:23:59.016Z,101163.56
2022-10-30T18:26:26.981Z,101188.91
2022-10-30T18:28:54.170Z,101198.00
2022-10-30T18:31:24.205Z,101201.56
2022-10-30T18:33:51.231Z,101198.69
2022-10-30T18:36:20.552Z,101198.13
2022-10-30T18:38:47.316Z,101209.34
2022-10-30T18:41:20.932Z,101219.94
2022-10-30T18:43:47.672Z,101240.06
2022-10-30T18:46:15.670Z,101255.84
2022-10-30T18:48:42.431Z,101262.03
2022-10-30T18:51:21.167Z,101266.03
2022-10-30T18:53:53.714Z,101264.16
2022-10-30T18:56:22.602Z,101268.75
2022-10-30T18:58:54.784Z,101280.34
2022-10-30T19:01:25.801Z,101273.91
2022-10-30T19:03:52.869Z,101277.06
2022-10-30T19:06:22.343Z,101283.50
2022-10-30T19:08:49.646Z,101280.56
2022-10-30T19:11:23.963Z,101289.94
2022-10-30T19:13:52.835Z,101299.69
2022-10-30T19:16:20.223Z,101303.19
2022-10-30T19:18:49.723Z,101299.06
2022-10-30T19:21:26.373Z,101302.56
2022-10-30T19:23:54.411Z,101300.09
2022-10-30T19:26:23.333Z,101297.81
2022-10-30T19:28:50.037Z,101312.34
2022-10-30T19:31:18.195Z,101301.97
2022-10-30T19:33:45.750Z,101308.59
2022-10-30T19:36:33.730Z,101308.59
2022-10-30T19:39:05.846Z,101307.34
2022-10-30T19:41:35.164Z,101327.69
2022-10-30T19:44:01.780Z,101330.59
2022-10-30T19:46:28.422Z,101334.75
2022-10-30T19:48:57.768Z,101340.34
2022-10-30T19:51:25.603Z,101337.44
2022-10-30T19:53:53.889Z,101350.50
2022-10-30T19:56:21.173Z,101348.66
2022-10-30T19:58:47.931Z,101361.72
2022-10-30T20:01:14.764Z,101354.25
2022-10-30T20:03:41.499Z,101365.47
2022-10-30T20:06:11.677Z,101366.72
2022-10-30T20:08:38.300Z,101360.50
2022-10-30T20:11:05.146Z,101334.97
2022-10-30T20:13:33.587Z,101325.22
2022-10-30T20:16:02.619Z,101282.00
2022-10-30T20:18:31.530Z,101247.34
2022-10-30T20:21:00.945Z,101215.56
2022-10-30T20:23:28.036Z,101184.22
2022-10-30T20:26:00.917Z,101158.69
2022-10-30T20:28:31.376Z,101130.28
2022-10-30T20:30:58.307Z,101116.84
2022-10-30T20:33:26.184Z,101137.00
2022-10-30T20:35:54.758Z,101146.25
2022-10-30T20:38:30.594Z,101119.31
2022-10-30T20:41:01.331Z,101102.19
2022-10-30T20:43:38.464Z,101099.28
2022-10-30T20:46:07.142Z,101097.25
2022-10-30T20:48:33.793Z,101108.25
2022-10-30T20:51:01.593Z,101134.59
2022-10-30T20:53:29.459Z,101161.50
2022-10-30T20:55:56.290Z,101154.81
2022-10-30T20:58:22.926Z,101138.81
2022-10-30T21:00:50.216Z,101118.88
2022-10-30T21:03:16.988Z,101090.81
2022-10-30T21:05:45.798Z,101059.69
2022-10-30T21:08:13.949Z,101032.94
2022-10-30T21:10:41.424Z,101020.97
2022-10-30T21:13:09.675Z,101014.53
2022-10-30T21:15:42.533Z,101000.56
2022-10-30T21:18:10.817Z,101016.13
2022-10-30T21:20:37.695Z,101022.81
2022-10-30T21:23:05.108Z,101043.16
2022-10-30T21:25:32.406Z,101063.06
2022-10-30T21:28:02.625Z,101094.78
2022-10-30T21:30:29.495Z,101121.09
2022-10-30T21:32:56.185Z,101132.72
2022-10-30T21:35:22.811Z,101154.25
2022-10-30T21:37:49.579Z,101156.94
2022-10-30T21:40:16.279Z,101144.09
2022-10-30T21:42:42.902Z,101127.50
2022-10-30T21:45:09.985Z,101102.78
2022-10-30T21:47:36.577Z,101078.34
2022-10-30T21:50:07.855Z,101074.50
2022-10-30T21:52:37.827Z,101042.97
2022-10-30T21:55:04.813Z,101030.97
2022-10-30T21:57:31.416Z,101022.06
2022-10-30T22:00:00.180Z,101016.50
2022-10-30T22:02:31.184Z,101010.00
2022-10-30T22:04:57.811Z,101008.16
2022-10-30T22:07:24.426Z,100993.63
2022-10-30T22:09:51.171Z,100984.50
2022-10-30T22:12:17.708Z,100977.44
2022-10-30T22:14:44.302Z,100971.25
2022-10-30T22:17:13.259Z,100975.59
2022-10-30T22:19:39.803Z,100976.28
2022-10-30T22:22:06.923Z,100977.88
2022-10-30T22:24:33.615Z,100971.56
2022-10-30T22:27:00.274Z,100987.31
2022-10-30T22:29:26.868Z,101009.06
2022-10-30T22:31:53.443Z,101010.28
2022-10-30T22:34:20.023Z,101034.38
2022-10-30T22:36:46.946Z,101029.81
2022-10-30T22:39:13.890Z,101034.56
2022-10-30T22:41:40.880Z,101036.84
2022-10-30T22:44:10.635Z,101040.16
2022-10-30T22:46:37.639Z,101045.81
2022-10-30T22:49:05.701Z,101057.03
2022-10-30T22:51:33.859Z,101070.50
2022-10-30T22:54:02.095Z,101082.75
2022-10-30T22:56:31.079Z,101091.88
2022-10-30T22:59:00.963Z,101111.97
2022-10-30T23:01:32.713Z,101130.63
2022-10-30T23:04:02.197Z,101154.47
2022-10-30T23:06:29.855Z,101172.69
2022-10-30T23:08:58.699Z,101187.22
2022-10-30T23:11:26.099Z,101190.78
2022-10-30T23:13:54.880Z,101207.97
2022-10-30T23:16:25.415Z,101214.78
2022-10-30T23:18:54.675Z,101215.00
2022-10-30T23:21:23.406Z,101241.53
2022-10-30T23:23:50.140Z,101246.47
2022-10-30T23:26:17.607Z,101264.56
2022-10-30T23:28:44.879Z,101280.91
2022-10-30T23:31:30.898Z,101302.47
2022-10-30T23:33:59.528Z,101302.81
2022-10-30T23:36:30.668Z,101316.19
2022-10-30T23:38:59.324Z,101339.44
2022-10-30T23:41:28.533Z,101345.16
2022-10-30T23:43:56.271Z,101352.53
2022-10-30T23:46:23.321Z,101373.22
2022-10-30T23:48:50.047Z,101385.47
2022-10-30T23:51:16.709Z,101409.72
2022-10-30T23:53:43.402Z,101432.13
2022-10-30T23:56:10.050Z,101443.31
2022-10-30T23:58:36.684Z,101473.34
